createdAt,value
2022-12-06T00:02:58.793Z,36.75
2022-12-06T00:08:04.061Z,31.75
2022-12-06T00:13:09.167Z,33.75
2022-12-06T00:18:14.144Z,36.75
2022-12-06T00:23:19.122Z,51.00
2022-12-06T00:28:24.111Z,50.75
2022-12-06T00:33:30.361Z,26.00
2022-12-06T00:43:41.595Z,10.00
2022-12-06T00:48:47.911Z,6.67
2022-12-06T00:53:53.650Z,5.00
2022-12-06T00:58:58.919Z,22.00
2022-12-06T01:04:06.617Z,5.50
2022-12-06T01:09:12.923Z,21.00
2022-12-06T01:14:18.043Z,15.00
2022-12-06T01:19:23.445Z,14.75
2022-12-06T01:24:28.711Z,7.33
2022-12-06T01:29:38.974Z,12.00
2022-12-06T01:34:46.537Z,12.50
2022-12-06T01:39:51.926Z,11.33
2022-12-06T01:45:01.976Z,16.00
2022-12-06T01:50:17.226Z,15.00
2022-12-06T01:55:26.077Z,12.00
2022-12-06T02:00:31.523Z,43.00
2022-12-06T02:05:41.003Z,16.00
2022-12-06T02:10:46.674Z,23.00
2022-12-06T02:16:20.637Z,25.00
2022-12-06T02:26:51.397Z,12.00
2022-12-06T02:31:56.776Z,12.50
2022-12-06T02:37:25.740Z,14.67
2022-12-06T02:43:02.913Z,8.00
2022-12-06T02:48:11.293Z,13.50
2022-12-06T02:53:21.378Z,5.33
2022-12-06T02:58:26.848Z,16.67
2022-12-06T03:03:57.045Z,14.75
2022-12-06T03:09:08.524Z,11.00
2022-12-06T03:14:22.706Z,14.67
2022-12-06T03:19:31.481Z,15.00
2022-12-06T03:24:41.413Z,14.33
2022-12-06T03:29:54.582Z,12.00
2022-12-06T03:35:05.026Z,11.33
2022-12-06T03:40:26.678Z,14.00
2022-12-06T03:45:55.896Z,16.50
2022-12-06T03:51:10.500Z,12.50
2022-12-06T03:56:15.973Z,50.00
2022-12-06T04:01:22.786Z,53.75
2022-12-06T04:06:28.924Z,22.25
2022-12-06T04:11:35.190Z,13.33
2022-12-06T04:16:58.729Z,7.50
2022-12-06T04:27:44.938Z,9.50
2022-12-06T04:33:08.283Z,15.67
2022-12-06T04:38:34.490Z,8.00
2022-12-06T04:43:43.717Z,9.00
2022-12-06T04:48:52.290Z,6.00
2022-12-06T04:53:57.908Z,9.33
2022-12-06T04:59:05.292Z,0.00
2022-12-06T05:04:12.096Z,4.50
2022-12-06T05:09:17.924Z,3.50
2022-12-06T05:14:23.491Z,7.00
2022-12-06T05:19:33.164Z,3.00
2022-12-06T05:24:39.205Z,4.50
2022-12-06T05:29:44.826Z,4.00
2022-12-06T05:34:50.264Z,5.50
2022-12-06T05:40:00.588Z,5.33
2022-12-06T05:45:06.510Z,4.00
2022-12-06T05:50:15.146Z,1.33
2022-12-06T05:55:26.012Z,9.00
2022-12-06T06:00:31.571Z,4.00
2022-12-06T06:05:41.162Z,6.00
2022-12-06T06:10:48.415Z,2.00
2022-12-06T06:15:55.147Z,0.00
2022-12-06T06:21:04.391Z,7.75
2022-12-06T06:26:12.558Z,6.00
2022-12-06T06:31:21.501Z,0.00
2022-12-06T06:36:27.044Z,0.00
2022-12-06T06:41:35.531Z,0.00
2022-12-06T06:46:43.808Z,0.00
2022-12-06T06:51:50.545Z,0.00
2022-12-06T06:56:58.501Z,0.00
2022-12-06T07:02:04.755Z,4.00
2022-12-06T07:07:19.279Z,0.00
2022-12-06T07:12:27.448Z,2.00
2022-12-06T07:17:34.872Z,4.00
2022-12-06T07:22:40.761Z,0.00
2022-12-06T07:27:46.597Z,0.50
2022-12-06T07:32:54.440Z,0.00
2022-12-06T07:38:00.227Z,3.33
2022-12-06T07:43:24.439Z,8.67
2022-12-06T07:48:32.310Z,0.00
2022-12-06T07:53:39.647Z,0.00
2022-12-06T07:58:45.253Z,0.00
2022-12-06T08:03:52.411Z,6.67
2022-12-06T08:08:59.085Z,0.00
2022-12-06T08:14:08.494Z,0.00
2022-12-06T08:19:15.469Z,0.00
2022-12-06T08:24:23.536Z,0.00
2022-12-06T08:29:29.511Z,0.00
2022-12-06T08:34:36.384Z,0.00
2022-12-06T08:39:43.663Z,0.00
2022-12-06T08:44:53.277Z,0.00
2022-12-06T08:50:00.490Z,0.00
2022-12-06T08:55:08.987Z,77.33
2022-12-06T09:00:15.122Z,62.00
2022-12-06T09:05:23.790Z,42.00
2022-12-06T09:10:29.954Z,46.50
2022-12-06T09:15:37.543Z,44.75
2022-12-06T09:20:44.439Z,39.33
2022-12-06T09:25:50.189Z,57.50
2022-12-06T09:30:59.602Z,75.75
2022-12-06T09:36:16.653Z,107.33
2022-12-06T09:41:32.200Z,119.00
2022-12-06T09:52:17.260Z,105.75
2022-12-06T09:57:51.986Z,131.50
2022-12-06T10:03:09.657Z,171.75
2022-12-06T10:08:36.692Z,137.00
2022-12-06T10:13:57.331Z,50.00
2022-12-06T10:19:27.797Z,41.67
2022-12-06T10:25:09.718Z,15.33
2022-12-06T10:30:17.522Z,31.00
2022-12-06T10:35:35.151Z,47.67
2022-12-06T10:41:12.507Z,61.00
2022-12-06T10:46:45.967Z,64.67
2022-12-06T10:52:07.628Z,42.00
2022-12-06T10:57:35.769Z,48.00
2022-12-06T11:02:58.863Z,51.00
2022-12-06T11:08:17.710Z,26.00
2022-12-06T11:13:35.301Z,12.50
2022-12-06T11:18:41.997Z,30.00
2022-12-06T11:24:24.078Z,25.00
2022-12-06T11:29:29.297Z,26.75
2022-12-06T11:40:32.454Z,31.75
2022-12-06T11:45:42.214Z,32.00
2022-12-06T11:50:50.597Z,50.00
2022-12-06T11:56:02.700Z,21.33
2022-12-06T12:01:17.232Z,25.33
2022-12-06T12:06:30.079Z,33.75
2022-12-06T12:11:39.315Z,27.75
2022-12-06T12:16:52.263Z,26.00
2022-12-06T12:22:00.112Z,47.50
2022-12-06T12:27:33.599Z,59.67
2022-12-06T12:32:38.646Z,50.00
2022-12-06T12:37:44.119Z,50.00
2022-12-06T12:42:50.356Z,56.25
2022-12-06T12:48:24.692Z,45.75
2022-12-06T12:53:43.120Z,45.00
2022-12-06T12:59:02.483Z,41.50
2022-12-06T13:04:16.627Z,52.67
2022-12-06T13:09:30.745Z,108.67
2022-12-06T13:14:37.689Z,77.00
2022-12-06T13:19:53.424Z,79.75
2022-12-06T13:25:08.192Z,96.00
2022-12-06T13:30:19.788Z,115.50
2022-12-06T13:35:44.910Z,110.67
2022-12-06T13:41:01.200Z,66.00
2022-12-06T13:51:36.344Z,72.00
2022-12-06T13:56:44.506Z,46.33
2022-12-06T14:01:53.737Z,47.00
2022-12-06T14:07:34.173Z,47.00
2022-12-06T14:12:39.750Z,48.50
2022-12-06T14:18:09.633Z,45.67
2022-12-06T14:23:32.708Z,41.00
2022-12-06T14:28:39.493Z,42.00
2022-12-06T14:33:46.255Z,42.00
2022-12-06T14:39:19.837Z,109.75
2022-12-06T14:44:34.395Z,69.25
2022-12-06T14:49:58.658Z,71.50
2022-12-06T14:55:32.043Z,157.00
2022-12-06T15:01:18.930Z,82.50
2022-12-06T15:06:26.755Z,76.00
2022-12-06T15:11:50.448Z,92.67
2022-12-06T15:17:20.212Z,133.25
2022-12-06T15:22:29.182Z,85.50
2022-12-06T15:27:35.791Z,104.33
2022-12-06T15:32:41.556Z,103.50
2022-12-06T15:37:50.337Z,68.50
2022-12-06T15:43:00.632Z,77.00
2022-12-06T15:48:08.172Z,54.00
2022-12-06T15:53:20.719Z,73.50
2022-12-06T15:58:26.337Z,50.00
2022-12-06T16:03:33.837Z,42.25
2022-12-06T16:08:39.218Z,47.00
2022-12-06T16:13:44.457Z,47.00
2022-12-06T16:18:51.040Z,53.00
2022-12-06T16:24:13.191Z,45.50
2022-12-06T16:29:26.688Z,34.00
2022-12-06T16:34:31.571Z,27.67
2022-12-06T16:39:37.521Z,35.00
2022-12-06T16:44:52.181Z,43.50
2022-12-06T16:49:57.362Z,39.25
2022-12-06T16:55:02.655Z,38.00
2022-12-06T17:00:08.421Z,38.00
2022-12-06T17:05:20.437Z,35.00
2022-12-06T17:10:25.299Z,30.00
2022-12-06T17:15:30.293Z,27.00
2022-12-06T17:20:34.963Z,23.25
2022-12-06T17:25:39.567Z,30.33
2022-12-06T17:30:49.298Z,17.75
2022-12-06T17:35:56.750Z,23.00
2022-12-06T17:41:01.312Z,23.00
2022-12-06T17:46:10.396Z,20.00
2022-12-06T17:51:15.095Z,20.00
2022-12-06T17:56:32.004Z,16.00
2022-12-06T18:02:06.265Z,15.00
2022-12-06T18:07:02.728Z,10.00
2022-12-06T18:22:16.586Z,23.00
2022-12-06T18:27:21.132Z,13.00
2022-12-06T18:32:25.658Z,15.00
2022-12-06T18:37:30.215Z,8.00
2022-12-06T18:42:36.069Z,10.00
2022-12-06T18:47:40.706Z,7.33
2022-12-06T18:52:45.350Z,6.50
2022-12-06T18:57:49.987Z,2.00
2022-12-06T19:02:54.598Z,4.00
2022-12-06T19:07:59.243Z,1.50
2022-12-06T19:13:05.815Z,0.00
2022-12-06T19:18:14.680Z,0.00
2022-12-06T19:23:19.722Z,0.00
2022-12-06T19:28:24.241Z,4.50
2022-12-06T19:33:29.096Z,4.00
2022-12-06T19:38:34.790Z,2.00
2022-12-06T19:43:57.504Z,3.50
2022-12-06T19:49:06.641Z,4.67
2022-12-06T19:54:15.462Z,13.00
2022-12-06T19:59:20.749Z,6.00
2022-12-06T20:04:31.083Z,5.00
2022-12-06T20:09:36.453Z,10.00
2022-12-06T20:14:49.871Z,9.33
2022-12-06T20:19:54.476Z,7.50
2022-12-06T20:24:59.135Z,13.33
2022-12-06T20:30:04.093Z,8.00
2022-12-06T20:35:09.130Z,6.67
2022-12-06T20:40:14.304Z,9.50
2022-12-06T20:45:20.339Z,6.00
2022-12-06T20:50:24.917Z,8.67
2022-12-06T20:55:29.769Z,13.00
2022-12-06T21:00:34.486Z,10.50
2022-12-06T21:05:41.040Z,12.00
2022-12-06T21:11:21.189Z,7.00
2022-12-06T21:16:27.499Z,8.67
2022-12-06T21:21:35.806Z,12.50
2022-12-06T21:26:40.986Z,11.50
2022-12-06T21:31:45.779Z,8.50
2022-12-06T21:36:50.354Z,10.50
2022-12-06T21:41:55.297Z,8.67
2022-12-06T21:46:59.910Z,8.67
2022-12-06T21:52:09.202Z,7.50
2022-12-06T21:57:14.096Z,11.00
2022-12-06T22:02:19.861Z,18.33
2022-12-06T22:07:24.551Z,8.00
2022-12-06T22:12:29.499Z,6.00
2022-12-06T22:17:34.047Z,17.00
2022-12-06T22:27:42.583Z,10.00
2022-12-06T22:32:47.194Z,14.00
2022-12-06T22:37:51.778Z,15.00
2022-12-06T22:42:56.248Z,10.50
2022-12-06T22:48:00.823Z,9.33
2022-12-06T22:58:09.428Z,15.00
2022-12-06T23:03:14.110Z,13.00
2022-12-06T23:08:18.697Z,10.67
2022-12-06T23:13:23.398Z,15.67
2022-12-06T23:18:29.630Z,13.00
2022-12-06T23:23:34.394Z,14.00
2022-12-06T23:28:39.239Z,20.00
2022-12-06T23:33:45.578Z,23.25
2022-12-06T23:38:50.628Z,29.50
2022-12-06T23:49:00.134Z,24.50
2022-12-06T23:54:07.385Z,25.00
2022-12-06T23:59:15.664Z,25.75
